createdAt,value
2018-01-25T00:04:55.525Z,11.10
2018-01-25T00:10:59.209Z,11.12
2018-01-25T00:17:02.631Z,11.10
2018-01-25T00:23:06.047Z,11.11
2018-01-25T00:29:10.280Z,11.11
2018-01-25T00:35:13.698Z,11.09
2018-01-25T00:41:17.093Z,11.03
2018-01-25T00:47:20.516Z,11.07
2018-01-25T00:53:23.971Z,11.04
2018-01-25T00:59:28.179Z,10.98
2018-01-25T01:05:31.615Z,10.99
2018-01-25T01:11:35.028Z,10.97
2018-01-25T01:17:38.467Z,10.99
2018-01-25T01:23:42.643Z,10.97
2018-01-25T01:29:46.120Z,10.95
2018-01-25T01:35:49.543Z,10.99
2018-01-25T01:41:53.700Z,10.97
2018-01-25T01:47:57.133Z,10.88
2018-01-25T01:54:00.547Z,10.87
2018-01-25T02:00:03.971Z,10.90
2018-01-25T02:06:07.394Z,10.96
2018-01-25T02:12:10.814Z,10.93
2018-01-25T02:18:14.231Z,10.94
2018-01-25T02:24:17.651Z,10.94
2018-01-25T02:30:21.076Z,10.97
2018-01-25T02:36:24.499Z,10.94
2018-01-25T02:42:27.929Z,10.87
2018-01-25T02:48:31.377Z,10.89
2018-01-25T02:54:34.840Z,10.88
2018-01-25T03:00:38.275Z,10.84
2018-01-25T03:06:41.683Z,10.83
2018-01-25T03:12:45.114Z,10.77
2018-01-25T03:18:48.536Z,10.72
2018-01-25T03:24:51.938Z,10.68
2018-01-25T03:30:55.398Z,10.73
2018-01-25T03:36:59.060Z,10.75
2018-01-25T03:43:03.250Z,10.75
2018-01-25T03:49:06.668Z,10.71
2018-01-25T03:55:10.093Z,10.67
2018-01-25T04:01:13.548Z,10.54
2018-01-25T04:07:17.724Z,10.43
2018-01-25T04:13:21.148Z,10.40
2018-01-25T04:19:24.565Z,10.43
2018-01-25T04:25:28.337Z,10.47
2018-01-25T04:31:31.856Z,10.46
2018-01-25T04:37:35.279Z,10.48
2018-01-25T04:43:38.697Z,10.44
2018-01-25T04:49:42.110Z,10.44
2018-01-25T04:55:45.543Z,10.41
2018-01-25T05:01:49.749Z,10.34
2018-01-25T05:07:53.172Z,10.10
2018-01-25T05:13:56.604Z,9.75
2018-01-25T05:20:00.081Z,9.40
2018-01-25T05:26:03.494Z,9.17
2018-01-25T05:32:06.904Z,9.01
2018-01-25T05:38:10.317Z,8.97
2018-01-25T05:44:13.777Z,8.96
2018-01-25T05:50:17.192Z,8.92
2018-01-25T05:56:20.590Z,8.89
2018-01-25T06:02:24.032Z,8.81
2018-01-25T06:08:27.445Z,8.77
2018-01-25T06:14:30.889Z,8.74
2018-01-25T06:20:34.319Z,8.65
2018-01-25T06:26:37.788Z,8.62
2018-01-25T06:32:41.242Z,8.66
2018-01-25T06:38:44.676Z,8.63
2018-01-25T06:44:48.487Z,8.63
2018-01-25T06:50:51.911Z,8.59
2018-01-25T06:56:55.355Z,8.52
2018-01-25T07:02:58.789Z,8.48
2018-01-25T07:09:03.327Z,8.43
2018-01-25T07:15:07.481Z,8.34
2018-01-25T07:21:10.929Z,8.38
2018-01-25T07:27:14.326Z,8.46
2018-01-25T07:33:17.746Z,8.46
2018-01-25T07:39:21.178Z,8.47
2018-01-25T07:45:24.591Z,8.47
2018-01-25T07:51:28.015Z,8.46
2018-01-25T07:57:36.872Z,8.53
2018-01-25T08:03:40.308Z,8.53
2018-01-25T08:09:43.739Z,8.52
2018-01-25T08:15:47.375Z,8.51
2018-01-25T08:21:50.774Z,8.55
2018-01-25T08:27:54.243Z,8.61
2018-01-25T08:33:57.671Z,8.61
2018-01-25T08:40:01.075Z,8.60
2018-01-25T08:46:05.259Z,8.66
2018-01-25T08:52:08.751Z,8.69
2018-01-25T08:58:12.160Z,8.72
2018-01-25T09:04:15.578Z,8.73
2018-01-25T09:10:19.012Z,8.85
2018-01-25T09:16:22.416Z,9.01
2018-01-25T09:22:25.831Z,9.25
2018-01-25T09:28:30.014Z,9.32
2018-01-25T09:34:33.698Z,9.26
2018-01-25T09:40:37.099Z,9.30
2018-01-25T09:46:41.312Z,9.47
2018-01-25T09:52:44.752Z,9.50
2018-01-25T09:58:48.942Z,9.60
2018-01-25T10:04:52.360Z,9.60
2018-01-25T10:10:55.756Z,9.62
2018-01-25T10:16:59.251Z,9.85
2018-01-25T10:23:03.433Z,9.82
2018-01-25T10:29:06.842Z,9.83
2018-01-25T10:35:10.336Z,9.62
2018-01-25T10:41:14.525Z,9.47
2018-01-25T10:47:17.954Z,9.37
2018-01-25T10:53:21.349Z,9.52
2018-01-25T10:59:24.763Z,9.65
2018-01-25T11:05:28.444Z,9.66
2018-01-25T11:11:32.610Z,9.70
2018-01-25T11:17:36.030Z,9.81
2018-01-25T11:23:39.451Z,9.76
2018-01-25T11:29:42.866Z,9.70
2018-01-25T11:35:46.283Z,9.70
2018-01-25T11:41:49.698Z,9.66
2018-01-25T11:47:53.111Z,9.65
2018-01-25T11:53:57.293Z,9.58
2018-01-25T12:00:00.690Z,9.69
2018-01-25T12:06:04.096Z,9.69
2018-01-25T12:12:07.490Z,9.54
2018-01-25T12:18:11.714Z,9.60
2018-01-25T12:24:15.228Z,9.68
2018-01-25T12:30:18.571Z,9.79
2018-01-25T12:36:22.740Z,9.70
2018-01-25T12:42:26.146Z,9.72
2018-01-25T12:48:30.907Z,9.74
2018-01-25T12:54:34.306Z,9.86
2018-01-25T13:00:37.713Z,10.09
2018-01-25T13:06:41.875Z,10.32
2018-01-25T13:12:45.296Z,10.37
2018-01-25T13:18:48.708Z,10.45
2018-01-25T13:24:52.141Z,10.44
2018-01-25T13:30:55.570Z,10.39
2018-01-25T13:36:58.974Z,10.37
2018-01-25T13:43:02.378Z,10.33
2018-01-25T13:49:05.792Z,10.25
2018-01-25T13:55:09.188Z,10.09
2018-01-25T14:01:12.629Z,9.91
2018-01-25T14:07:16.079Z,9.75
2018-01-25T14:13:19.512Z,9.68
2018-01-25T14:19:22.959Z,9.64
2018-01-25T14:25:26.366Z,9.63
2018-01-25T14:31:29.794Z,9.57
2018-01-25T14:37:33.210Z,9.47
2018-01-25T14:43:36.643Z,9.43
2018-01-25T14:49:40.061Z,9.31
2018-01-25T14:55:43.479Z,9.25
2018-01-25T15:01:46.880Z,9.21
2018-01-25T15:07:50.306Z,9.13
2018-01-25T15:13:53.698Z,9.09
2018-01-25T15:19:57.116Z,8.98
2018-01-25T15:26:00.822Z,8.91
2018-01-25T15:32:04.226Z,8.83
2018-01-25T15:38:07.633Z,8.73
2018-01-25T15:44:11.852Z,8.65
2018-01-25T15:50:15.246Z,8.56
2018-01-25T15:56:18.687Z,8.46
2018-01-25T16:02:22.084Z,8.43
2018-01-25T16:08:25.539Z,8.39
2018-01-25T16:14:29.707Z,8.41
2018-01-25T16:20:33.140Z,8.39
2018-01-25T16:26:36.547Z,8.38
2018-01-25T16:32:39.931Z,8.24
2018-01-25T16:38:44.160Z,8.21
2018-01-25T16:44:47.572Z,8.20
2018-01-25T16:50:51.330Z,8.18
2018-01-25T16:56:54.746Z,8.17
2018-01-25T17:02:58.192Z,8.10
2018-01-25T17:09:01.625Z,8.01
2018-01-25T17:15:07.899Z,7.99
2018-01-25T17:21:11.297Z,7.93
2018-01-25T17:27:14.714Z,7.91
2018-01-25T17:33:18.140Z,7.89
2018-01-25T17:39:22.012Z,7.87
2018-01-25T17:45:25.440Z,7.87
2018-01-25T17:51:28.831Z,7.86
2018-01-25T17:57:32.235Z,7.77
2018-01-25T18:03:35.633Z,7.78
2018-01-25T18:09:39.826Z,7.80
2018-01-25T18:15:43.258Z,7.79
2018-01-25T18:21:46.672Z,7.78
2018-01-25T18:27:50.102Z,7.73
2018-01-25T18:33:54.303Z,7.80
2018-01-25T18:39:57.687Z,7.76
2018-01-25T18:46:01.395Z,7.75
2018-01-25T18:52:04.823Z,7.76
2018-01-25T18:58:08.995Z,7.80
2018-01-25T19:04:12.448Z,7.80
2018-01-25T19:10:15.870Z,7.82
2018-01-25T19:16:19.293Z,7.82
2018-01-25T19:22:22.706Z,7.81
2018-01-25T19:28:26.159Z,7.79
2018-01-25T19:34:30.347Z,7.85
2018-01-25T19:40:33.771Z,7.85
2018-01-25T19:46:37.644Z,7.87
2018-01-25T19:52:41.823Z,7.84
2018-01-25T19:58:45.280Z,7.85
2018-01-25T20:04:49.617Z,7.87
2018-01-25T20:10:53.070Z,7.85
2018-01-25T20:16:56.484Z,7.87
2018-01-25T20:22:59.904Z,7.81
2018-01-25T20:29:03.714Z,7.75
2018-01-25T20:35:07.898Z,7.77
2018-01-25T20:41:11.335Z,7.73
2018-01-25T20:47:14.744Z,7.77
2018-01-25T20:53:18.139Z,7.80
2018-01-25T20:59:21.530Z,7.68
2018-01-25T21:05:25.716Z,7.62
2018-01-25T21:11:29.094Z,7.66
2018-01-25T21:17:33.265Z,7.64
2018-01-25T21:23:36.678Z,7.63
2018-01-25T21:29:40.095Z,7.55
2018-01-25T21:35:43.517Z,7.47
2018-01-25T21:41:46.916Z,7.56
2018-01-25T21:47:50.331Z,7.54
2018-01-25T21:53:53.766Z,7.42
2018-01-25T21:59:57.186Z,7.40
2018-01-25T22:06:00.599Z,7.33
2018-01-25T22:12:03.983Z,7.33
2018-01-25T22:18:07.410Z,7.31
2018-01-25T22:24:11.608Z,7.56
2018-01-25T22:30:15.039Z,7.42
2018-01-25T22:36:18.460Z,7.40
2018-01-25T22:42:21.870Z,7.35
2018-01-25T22:48:25.259Z,7.30
2018-01-25T22:54:28.669Z,7.24
2018-01-25T23:00:39.983Z,7.32
2018-01-25T23:06:43.398Z,7.32
2018-01-25T23:12:46.820Z,7.23
2018-01-25T23:18:50.251Z,7.20
2018-01-25T23:24:53.665Z,7.21
2018-01-25T23:30:57.052Z,7.26
2018-01-25T23:37:00.481Z,7.22
2018-01-25T23:43:03.889Z,7.24
2018-01-25T23:49:08.079Z,7.21
2018-01-25T23:55:11.520Z,7.23
